createdAt,value
2023-01-01T00:02:02.734Z,55.10
2023-01-01T00:04:32.670Z,34.40
2023-01-01T00:07:01.294Z,32.73
2023-01-01T00:09:47.577Z,36.80
2023-01-01T00:12:17.942Z,45.63
2023-01-01T00:14:46.487Z,54.07
2023-01-01T00:17:14.953Z,66.73
2023-01-01T00:19:43.559Z,207.67
2023-01-01T00:22:52.171Z,208.57
2023-01-01T00:25:02.205Z,158.67
2023-01-01T00:27:32.522Z,135.27
2023-01-01T00:30:00.983Z,148.33
2023-01-01T00:32:29.549Z,156.47
2023-01-01T00:34:58.007Z,142.33
2023-01-01T00:37:26.468Z,101.00
2023-01-01T00:39:55.177Z,101.47
2023-01-01T00:42:24.890Z,110.70
2023-01-01T00:44:54.675Z,114.50
2023-01-01T00:47:23.481Z,112.00
2023-01-01T00:49:51.982Z,110.53
2023-01-01T00:52:20.436Z,119.73
2023-01-01T00:54:51.007Z,104.27
2023-01-01T00:57:19.519Z,116.90
2023-01-01T00:59:48.083Z,110.77
2023-01-01T01:02:18.089Z,100.23
2023-01-01T01:04:46.724Z,106.73
2023-01-01T01:07:15.204Z,104.10
2023-01-01T01:09:43.785Z,100.43
2023-01-01T01:12:18.160Z,88.03
2023-01-01T01:14:47.477Z,82.13
2023-01-01T01:17:16.123Z,94.47
2023-01-01T01:19:45.903Z,96.47
2023-01-01T01:22:14.531Z,86.00
2023-01-01T01:24:43.023Z,102.63
2023-01-01T01:27:11.583Z,87.03
2023-01-01T01:29:40.084Z,81.57
2023-01-01T01:32:08.612Z,73.77
2023-01-01T01:34:37.055Z,79.20
2023-01-01T01:37:07.362Z,79.63
2023-01-01T01:39:36.873Z,83.07
2023-01-01T01:42:07.141Z,83.43
2023-01-01T01:45:00.662Z,80.73
2023-01-01T01:47:32.326Z,75.00
2023-01-01T01:50:05.833Z,73.03
2023-01-01T01:52:36.475Z,76.67
2023-01-01T01:55:06.118Z,88.47
2023-01-01T01:57:35.046Z,87.17
2023-01-01T02:00:10.702Z,82.63
2023-01-01T02:02:42.457Z,82.87
2023-01-01T02:05:11.683Z,75.27
2023-01-01T02:07:42.028Z,85.73
2023-01-01T02:10:11.089Z,82.47
2023-01-01T02:12:39.778Z,72.93
2023-01-01T02:15:09.586Z,73.57
2023-01-01T02:17:42.027Z,75.90
2023-01-01T02:20:18.377Z,79.20
2023-01-01T02:22:57.921Z,89.57
2023-01-01T02:25:34.851Z,79.70
2023-01-01T02:28:08.113Z,89.87
2023-01-01T02:30:38.759Z,81.23
2023-01-01T02:33:12.129Z,72.50
2023-01-01T02:35:42.667Z,97.43
2023-01-01T02:38:13.279Z,86.90
2023-01-01T02:40:44.478Z,86.70
2023-01-01T02:43:12.989Z,90.97
2023-01-01T02:45:42.874Z,87.33
2023-01-01T02:48:26.142Z,79.57
2023-01-01T02:50:54.915Z,80.83
2023-01-01T02:53:28.335Z,87.63
2023-01-01T02:56:02.442Z,73.40
2023-01-01T02:58:52.379Z,78.40
2023-01-01T03:01:26.367Z,84.30
2023-01-01T03:03:58.855Z,70.23
2023-01-01T03:06:29.457Z,68.47
2023-01-01T03:09:05.943Z,75.03
2023-01-01T03:11:39.684Z,71.80
2023-01-01T03:14:10.787Z,75.13
2023-01-01T03:16:43.117Z,73.80
2023-01-01T03:19:15.957Z,65.80
2023-01-01T03:21:46.608Z,66.77
2023-01-01T03:24:18.155Z,71.77
2023-01-01T03:26:48.835Z,65.07
2023-01-01T03:29:18.023Z,73.53
2023-01-01T03:31:50.335Z,62.97
2023-01-01T03:34:20.784Z,60.63
2023-01-01T03:36:51.379Z,64.33
2023-01-01T03:39:21.201Z,61.97
2023-01-01T03:41:52.108Z,60.27
2023-01-01T03:44:23.763Z,64.73
2023-01-01T03:46:53.748Z,58.40
2023-01-01T03:49:22.638Z,51.53
2023-01-01T03:52:09.322Z,56.40
2023-01-01T03:54:40.902Z,49.53
2023-01-01T03:57:12.461Z,48.40
2023-01-01T03:59:42.836Z,51.43
2023-01-01T04:02:13.320Z,50.90
2023-01-01T04:04:42.478Z,51.13
2023-01-01T04:07:15.251Z,46.07
2023-01-01T04:09:47.170Z,47.07
2023-01-01T04:12:17.280Z,44.10
2023-01-01T04:14:46.075Z,44.17
2023-01-01T04:17:15.955Z,42.50
2023-01-01T04:19:48.789Z,42.27
2023-01-01T04:22:23.655Z,40.90
2023-01-01T04:24:52.363Z,40.30
2023-01-01T04:27:21.895Z,43.80
2023-01-01T04:29:50.432Z,43.33
2023-01-01T04:32:20.485Z,44.37
2023-01-01T04:34:49.311Z,49.40
2023-01-01T04:37:17.961Z,44.33
2023-01-01T04:39:46.613Z,40.33
2023-01-01T04:42:15.431Z,38.10
2023-01-01T04:44:44.024Z,40.30
2023-01-01T04:47:12.690Z,39.07
2023-01-01T04:49:42.468Z,35.67
2023-01-01T04:52:11.209Z,36.40
2023-01-01T04:54:39.639Z,34.03
2023-01-01T04:57:08.087Z,33.33
2023-01-01T04:59:36.567Z,32.67
2023-01-01T05:02:05.098Z,30.13
2023-01-01T05:04:33.648Z,27.30
2023-01-01T05:07:03.722Z,27.53
2023-01-01T05:09:32.236Z,26.70
2023-01-01T05:12:00.673Z,28.77
2023-01-01T05:14:29.108Z,20.27
2023-01-01T05:16:57.659Z,24.17
2023-01-01T05:19:26.064Z,26.50
2023-01-01T05:21:54.646Z,24.20
2023-01-01T05:24:24.519Z,25.40
2023-01-01T05:26:53.273Z,23.90
2023-01-01T05:29:24.251Z,23.60
2023-01-01T05:31:53.258Z,18.77
2023-01-01T05:34:21.758Z,20.50
2023-01-01T05:36:50.236Z,22.90
2023-01-01T05:39:18.628Z,19.57
2023-01-01T05:41:48.419Z,21.90
2023-01-01T05:44:17.385Z,22.33
2023-01-01T05:46:45.884Z,19.33
2023-01-01T05:49:14.627Z,19.43
2023-01-01T05:51:43.107Z,21.67
2023-01-01T05:56:38.898Z,15.00
2023-01-01T05:59:09.070Z,17.33
2023-01-01T06:01:45.109Z,16.70
2023-01-01T06:04:14.609Z,19.93
2023-01-01T06:06:43.312Z,16.07
2023-01-01T06:09:12.304Z,19.97
2023-01-01T06:11:40.731Z,15.53
2023-01-01T06:14:10.764Z,17.67
2023-01-01T06:16:39.564Z,14.50
2023-01-01T06:19:08.112Z,13.63
2023-01-01T06:21:36.563Z,17.70
2023-01-01T06:24:05.196Z,17.90
2023-01-01T06:26:34.521Z,14.57
2023-01-01T06:29:03.808Z,13.20
2023-01-01T06:31:40.413Z,15.80
2023-01-01T06:34:09.186Z,11.57
2023-01-01T06:36:37.730Z,10.40
2023-01-01T06:39:06.477Z,12.13
2023-01-01T06:41:34.972Z,9.63
2023-01-01T06:44:03.388Z,12.03
2023-01-01T06:46:32.705Z,9.53
2023-01-01T06:49:04.690Z,8.33
2023-01-01T06:51:34.328Z,9.83
2023-01-01T06:54:03.648Z,9.17
2023-01-01T06:56:32.702Z,10.07
2023-01-01T06:59:01.474Z,10.60
2023-01-01T07:01:30.652Z,9.00
2023-01-01T07:04:00.315Z,10.60
2023-01-01T07:06:30.826Z,8.00
2023-01-01T07:08:59.302Z,7.83
2023-01-01T07:11:28.171Z,11.47
2023-01-01T07:13:56.761Z,7.97
2023-01-01T07:16:25.418Z,9.77
2023-01-01T07:18:54.228Z,8.10
2023-01-01T07:21:29.657Z,9.17
2023-01-01T07:24:00.303Z,9.20
2023-01-01T07:26:29.343Z,9.17
2023-01-01T07:29:04.537Z,11.67
2023-01-01T07:31:35.296Z,10.53
2023-01-01T07:34:03.827Z,10.97
2023-01-01T07:36:32.282Z,12.37
2023-01-01T07:39:02.391Z,10.40
2023-01-01T07:41:30.846Z,10.57
2023-01-01T07:44:00.634Z,12.00
2023-01-01T07:46:29.584Z,10.80
2023-01-01T07:48:59.831Z,10.57
2023-01-01T07:51:28.779Z,13.13
2023-01-01T07:54:02.166Z,8.63
2023-01-01T07:56:36.911Z,8.03
2023-01-01T07:59:05.652Z,9.70
2023-01-01T08:01:36.826Z,10.80
2023-01-01T08:04:05.362Z,9.13
2023-01-01T08:06:34.274Z,9.07
2023-01-01T08:09:03.061Z,9.60
2023-01-01T08:11:31.530Z,10.23
2023-01-01T08:14:02.112Z,12.03
2023-01-01T08:16:30.575Z,11.60
2023-01-01T08:18:59.091Z,8.93
2023-01-01T08:21:27.654Z,10.97
2023-01-01T08:23:56.266Z,10.93
2023-01-01T08:26:30.013Z,9.13
2023-01-01T08:28:58.644Z,9.27
2023-01-01T08:31:28.737Z,8.37
2023-01-01T08:33:57.297Z,9.10
2023-01-01T08:36:27.169Z,8.70
2023-01-01T08:38:55.858Z,8.50
2023-01-01T08:41:24.499Z,8.47
2023-01-01T08:43:53.024Z,9.57
2023-01-01T08:46:21.512Z,8.50
2023-01-01T08:48:51.353Z,10.33
2023-01-01T08:51:20.038Z,8.93
2023-01-01T08:53:51.152Z,11.57
2023-01-01T08:56:20.617Z,9.83
2023-01-01T08:58:49.267Z,8.23
2023-01-01T09:01:18.151Z,10.20
2023-01-01T09:03:46.638Z,11.13
2023-01-01T09:06:16.539Z,9.73
2023-01-01T09:08:45.009Z,9.37
2023-01-01T09:11:20.223Z,10.80
2023-01-01T09:13:48.665Z,8.90
2023-01-01T09:19:48.226Z,10.30
2023-01-01T09:22:18.445Z,8.63
2023-01-01T09:24:47.263Z,6.23
2023-01-01T09:27:15.758Z,5.67
2023-01-01T09:29:44.264Z,3.83
2023-01-01T09:32:12.701Z,3.53
2023-01-01T09:34:41.273Z,4.30
2023-01-01T09:37:09.922Z,5.13
2023-01-01T09:39:40.558Z,6.57
2023-01-01T09:42:20.906Z,4.07
2023-01-01T09:48:46.889Z,5.93
2023-01-01T09:51:17.685Z,3.27
2023-01-01T09:53:50.208Z,4.67
2023-01-01T09:56:22.459Z,6.23
2023-01-01T09:58:50.840Z,3.57
2023-01-01T10:01:35.680Z,4.90
2023-01-01T10:04:09.969Z,4.70
2023-01-01T10:06:43.383Z,3.87
2023-01-01T10:09:13.882Z,4.37
2023-01-01T10:11:47.637Z,2.97
2023-01-01T10:14:19.356Z,5.10
2023-01-01T10:16:50.923Z,4.63
2023-01-01T10:19:24.410Z,3.70
2023-01-01T10:21:53.517Z,5.80
2023-01-01T10:24:33.001Z,7.30
2023-01-01T10:27:04.028Z,4.70
2023-01-01T10:29:37.139Z,3.87
2023-01-01T10:32:08.102Z,4.13
2023-01-01T10:34:36.521Z,7.47
2023-01-01T10:37:05.778Z,5.67
2023-01-01T10:39:34.179Z,4.73
2023-01-01T10:42:04.776Z,3.70
2023-01-01T10:44:34.288Z,5.07
2023-01-01T10:47:06.457Z,4.87
2023-01-01T10:49:34.830Z,4.13
2023-01-01T10:52:03.412Z,3.93
2023-01-01T10:54:34.931Z,6.07
2023-01-01T10:57:15.128Z,4.10
2023-01-01T10:59:49.863Z,6.90
2023-01-01T11:02:22.055Z,6.03
2023-01-01T11:04:51.604Z,5.03
2023-01-01T11:07:22.429Z,4.20
2023-01-01T11:10:03.093Z,5.15
2023-01-01T11:15:28.204Z,4.90
2023-01-01T11:18:04.308Z,6.43
2023-01-01T11:20:33.190Z,3.97
2023-01-01T11:23:18.900Z,5.57
2023-01-01T11:25:58.566Z,4.77
2023-01-01T11:28:31.440Z,5.43
2023-01-01T11:31:01.939Z,5.20
2023-01-01T11:33:32.017Z,4.60
2023-01-01T11:36:00.618Z,3.37
2023-01-01T11:38:30.398Z,5.33
2023-01-01T11:41:04.339Z,4.63
2023-01-01T11:43:36.933Z,4.87
2023-01-01T11:46:08.223Z,6.20
2023-01-01T11:48:36.839Z,4.75
2023-01-01T11:51:07.714Z,4.77
2023-01-01T11:53:40.488Z,4.20
2023-01-01T11:56:14.085Z,1.83
2023-01-01T11:58:48.228Z,4.13
2023-01-01T12:01:21.694Z,2.80
2023-01-01T12:03:51.564Z,3.37
2023-01-01T12:06:23.040Z,3.47
2023-01-01T12:08:54.499Z,2.83
2023-01-01T12:11:24.304Z,3.80
2023-01-01T12:13:57.531Z,3.50
2023-01-01T12:16:28.788Z,4.20
2023-01-01T12:19:02.475Z,3.83
2023-01-01T12:21:32.803Z,31.30
2023-01-01T12:24:01.341Z,5.93
2023-01-01T12:26:35.108Z,4.03
2023-01-01T12:29:12.823Z,4.93
2023-01-01T12:31:46.867Z,22.30
2023-01-01T12:34:19.112Z,12.60
2023-01-01T12:36:49.685Z,5.13
2023-01-01T12:39:36.403Z,3.28
2023-01-01T12:42:06.724Z,4.63
2023-01-01T12:44:40.807Z,5.68
2023-01-01T12:47:13.491Z,19.27
2023-01-01T12:49:50.629Z,9.37
2023-01-01T12:52:23.014Z,16.63
2023-01-01T12:55:10.767Z,25.27
2023-01-01T12:57:41.999Z,14.23
2023-01-01T13:00:16.387Z,7.03
2023-01-01T13:02:49.621Z,4.87
2023-01-01T13:05:20.772Z,4.97
2023-01-01T13:07:52.058Z,5.33
2023-01-01T13:10:24.722Z,3.43
2023-01-01T13:12:54.810Z,3.75
2023-01-01T13:15:44.625Z,3.80
2023-01-01T13:18:24.351Z,3.67
2023-01-01T13:20:58.023Z,4.83
2023-01-01T13:23:44.101Z,4.82
2023-01-01T13:26:31.215Z,4.07
2023-01-01T13:33:02.783Z,5.20
2023-01-01T13:35:32.526Z,4.60
2023-01-01T13:38:00.911Z,5.07
2023-01-01T13:40:34.170Z,5.75
2023-01-01T13:43:17.853Z,2.67
2023-01-01T13:48:50.960Z,3.80
2023-01-01T13:52:04.123Z,5.00
2023-01-01T13:54:54.597Z,3.47
2023-01-01T13:57:34.445Z,3.95
2023-01-01T14:00:07.559Z,2.97
2023-01-01T14:02:44.532Z,3.27
2023-01-01T14:05:16.530Z,5.30
2023-01-01T14:07:52.406Z,4.13
2023-01-01T14:10:23.731Z,6.18
2023-01-01T14:12:53.366Z,5.53
2023-01-01T14:15:25.985Z,4.32
2023-01-01T14:17:56.375Z,6.60
2023-01-01T14:20:25.482Z,4.38
2023-01-01T14:22:55.483Z,4.10
2023-01-01T14:25:28.339Z,4.50
2023-01-01T14:27:58.310Z,6.18
2023-01-01T14:30:27.212Z,5.20
2023-01-01T14:32:59.217Z,3.13
2023-01-01T14:39:28.221Z,4.10
2023-01-01T14:42:00.034Z,3.47
2023-01-01T14:44:30.618Z,2.67
2023-01-01T14:46:59.717Z,5.97
2023-01-01T14:49:31.510Z,5.00
2023-01-01T14:52:04.193Z,3.73
2023-01-01T14:54:35.116Z,3.67
2023-01-01T14:57:03.762Z,5.87
2023-01-01T14:59:32.925Z,5.10
2023-01-01T15:02:02.733Z,5.33
2023-01-01T15:04:31.736Z,4.33
2023-01-01T15:07:01.396Z,2.43
2023-01-01T15:09:30.388Z,4.63
2023-01-01T15:12:00.827Z,4.97
2023-01-01T15:14:30.954Z,3.60
2023-01-01T15:17:03.288Z,3.20
2023-01-01T15:19:32.071Z,3.07
2023-01-01T15:22:01.122Z,3.07
2023-01-01T15:24:30.609Z,4.00
2023-01-01T15:27:01.021Z,5.93
2023-01-01T15:29:31.033Z,4.50
2023-01-01T15:32:00.655Z,5.40
2023-01-01T15:34:31.164Z,4.37
2023-01-01T15:37:08.061Z,6.50
2023-01-01T15:39:46.476Z,5.13
2023-01-01T15:42:31.843Z,8.17
2023-01-01T15:45:09.694Z,6.63
2023-01-01T15:47:39.997Z,6.30
2023-01-01T15:50:09.757Z,4.93
2023-01-01T15:52:38.452Z,5.53
2023-01-01T15:55:07.411Z,5.17
2023-01-01T15:57:37.287Z,5.63
2023-01-01T16:00:06.404Z,5.63
2023-01-01T16:02:44.196Z,4.73
2023-01-01T16:05:15.912Z,4.97
2023-01-01T16:07:44.392Z,4.57
2023-01-01T16:10:15.802Z,4.07
2023-01-01T16:12:45.687Z,7.53
2023-01-01T16:15:16.669Z,3.70
2023-01-01T16:18:04.429Z,3.80
2023-01-01T16:20:33.058Z,5.20
2023-01-01T16:23:01.566Z,5.80
2023-01-01T16:25:30.139Z,6.07
2023-01-01T16:27:59.924Z,5.07
2023-01-01T16:30:28.476Z,6.40
2023-01-01T16:32:57.057Z,5.13
2023-01-01T16:35:25.505Z,5.13
2023-01-01T16:37:55.000Z,4.60
2023-01-01T16:40:23.760Z,6.50
2023-01-01T16:42:52.265Z,3.30
2023-01-01T16:45:22.234Z,5.30
2023-01-01T16:47:50.689Z,4.97
2023-01-01T16:50:19.569Z,7.10
2023-01-01T16:52:48.091Z,8.77
2023-01-01T16:55:16.732Z,7.23
2023-01-01T16:57:45.216Z,4.70
2023-01-01T17:00:15.380Z,6.37
2023-01-01T17:02:46.739Z,8.63
2023-01-01T17:05:15.582Z,6.00
2023-01-01T17:07:44.059Z,5.93
2023-01-01T17:10:12.502Z,7.17
2023-01-01T17:12:41.053Z,5.57
2023-01-01T17:15:09.990Z,6.23
2023-01-01T17:17:38.457Z,5.60
2023-01-01T17:20:08.629Z,7.77
2023-01-01T17:22:38.068Z,9.53
2023-01-01T17:25:08.768Z,8.10
2023-01-01T17:27:38.398Z,6.60
2023-01-01T17:30:07.511Z,8.70
2023-01-01T17:32:35.999Z,5.47
2023-01-01T17:35:04.863Z,7.67
2023-01-01T17:37:35.789Z,8.83
2023-01-01T17:40:04.501Z,7.10
2023-01-01T17:42:32.993Z,8.43
2023-01-01T17:45:01.451Z,9.57
2023-01-01T17:47:33.301Z,11.20
2023-01-01T17:50:02.018Z,9.97
2023-01-01T17:52:30.535Z,10.20
2023-01-01T17:55:00.452Z,9.13
2023-01-01T17:57:29.047Z,12.07
2023-01-01T17:59:59.471Z,14.63
2023-01-01T18:02:28.605Z,12.23
2023-01-01T18:04:58.580Z,12.10
2023-01-01T18:07:29.400Z,14.20
2023-01-01T18:09:59.032Z,16.53
2023-01-01T18:12:29.509Z,12.13
2023-01-01T18:14:58.110Z,12.50
2023-01-01T18:17:26.909Z,13.70
2023-01-01T18:19:55.861Z,16.23
2023-01-01T18:22:24.956Z,14.67
2023-01-01T18:24:53.846Z,12.60
2023-01-01T18:27:24.074Z,11.73
2023-01-01T18:29:54.727Z,12.07
2023-01-01T18:32:23.781Z,14.67
2023-01-01T18:34:52.405Z,12.87
2023-01-01T18:37:22.473Z,20.47
2023-01-01T18:39:51.863Z,27.60
2023-01-01T18:42:28.253Z,24.60
2023-01-01T18:45:09.453Z,15.37
2023-01-01T18:47:40.367Z,19.67
2023-01-01T18:50:16.552Z,19.93
2023-01-01T18:52:45.677Z,17.23
2023-01-01T18:55:18.207Z,15.17
2023-01-01T18:57:49.645Z,15.23
2023-01-01T19:00:22.630Z,12.83
2023-01-01T19:02:59.022Z,17.27
2023-01-01T19:05:28.917Z,13.43
2023-01-01T19:07:59.362Z,14.00
2023-01-01T19:10:32.299Z,12.97
2023-01-01T19:13:01.677Z,14.30
2023-01-01T19:15:32.453Z,15.40
2023-01-01T19:18:01.268Z,14.33
2023-01-01T19:20:30.074Z,12.80
2023-01-01T19:22:59.530Z,14.57
2023-01-01T19:25:36.627Z,12.80
2023-01-01T19:28:22.911Z,17.53
2023-01-01T19:30:53.991Z,16.67
2023-01-01T19:33:22.651Z,15.00
2023-01-01T19:35:51.880Z,16.07
2023-01-01T19:38:20.979Z,15.37
2023-01-01T19:40:49.858Z,13.23
2023-01-01T19:43:18.546Z,13.47
2023-01-01T19:45:47.346Z,12.20
2023-01-01T19:48:18.510Z,12.97
2023-01-01T19:50:49.097Z,14.73
2023-01-01T19:53:19.845Z,12.90
2023-01-01T19:55:48.932Z,13.73
2023-01-01T19:58:20.041Z,16.40
2023-01-01T20:00:49.324Z,12.50
2023-01-01T20:03:52.101Z,14.20
2023-01-01T20:06:09.999Z,11.50
2023-01-01T20:08:39.724Z,15.10
2023-01-01T20:11:08.720Z,16.47
2023-01-01T20:13:38.131Z,17.00
2023-01-01T20:16:07.560Z,13.17
2023-01-01T20:18:38.701Z,13.73
2023-01-01T20:21:27.052Z,14.43
2023-01-01T20:23:56.036Z,17.53
2023-01-01T20:26:26.594Z,21.23
2023-01-01T20:29:14.506Z,19.67
2023-01-01T20:31:44.159Z,17.43
2023-01-01T20:34:14.131Z,19.10
2023-01-01T20:37:02.598Z,15.03
2023-01-01T20:39:32.674Z,19.37
2023-01-01T20:42:01.486Z,17.60
2023-01-01T20:44:30.213Z,18.47
2023-01-01T20:47:00.128Z,17.87
2023-01-01T20:49:30.057Z,15.20
2023-01-01T20:51:58.953Z,16.73
2023-01-01T20:54:27.879Z,16.13
2023-01-01T20:56:56.521Z,15.37
2023-01-01T20:59:35.472Z,12.60
2023-01-01T21:02:05.265Z,13.80
2023-01-01T21:04:39.064Z,14.60
2023-01-01T21:07:09.207Z,12.93
2023-01-01T21:09:38.107Z,15.00
2023-01-01T21:12:07.613Z,15.13
2023-01-01T21:14:36.520Z,13.70
2023-01-01T21:17:09.619Z,13.33
2023-01-01T21:19:41.992Z,15.10
2023-01-01T21:22:14.299Z,13.63
2023-01-01T21:24:42.771Z,14.37
2023-01-01T21:27:13.846Z,15.63
2023-01-01T21:29:43.754Z,14.93
2023-01-01T21:32:15.918Z,15.83
2023-01-01T21:34:46.126Z,15.67
2023-01-01T21:37:38.315Z,15.47
2023-01-01T21:40:25.871Z,14.73
2023-01-01T21:42:55.877Z,14.23
2023-01-01T21:45:27.333Z,13.57
2023-01-01T21:47:55.856Z,14.87
2023-01-01T21:50:26.858Z,11.67
2023-01-01T21:52:58.859Z,10.93
2023-01-01T21:55:49.136Z,15.13
2023-01-01T21:58:36.519Z,13.17
2023-01-01T22:01:08.663Z,14.70
2023-01-01T22:03:37.700Z,13.07
2023-01-01T22:06:14.597Z,13.67
2023-01-01T22:08:44.631Z,11.63
2023-01-01T22:11:19.947Z,12.63
2023-01-01T22:13:48.396Z,13.87
2023-01-01T22:16:18.192Z,12.37
2023-01-01T22:18:46.719Z,12.60
2023-01-01T22:21:18.924Z,11.70
2023-01-01T22:23:47.747Z,12.47
2023-01-01T22:26:19.271Z,12.13
2023-01-01T22:28:48.936Z,11.97
2023-01-01T22:31:20.475Z,11.33
2023-01-01T22:33:49.854Z,13.17
2023-01-01T22:36:22.092Z,15.67
2023-01-01T22:38:50.761Z,15.87
2023-01-01T22:41:19.331Z,12.10
2023-01-01T22:43:48.599Z,13.70
2023-01-01T22:46:19.115Z,11.90
2023-01-01T22:48:52.625Z,15.87
2023-01-01T22:51:28.428Z,12.57
2023-01-01T22:53:56.962Z,14.57
2023-01-01T22:56:25.429Z,16.20
2023-01-01T22:58:57.228Z,15.07
2023-01-01T23:01:26.576Z,16.80
2023-01-01T23:03:55.170Z,14.40
2023-01-01T23:06:23.885Z,12.20
2023-01-01T23:08:54.734Z,14.40
2023-01-01T23:11:23.593Z,14.03
2023-01-01T23:14:10.899Z,14.33
2023-01-01T23:16:39.461Z,14.33
2023-01-01T23:19:07.999Z,12.07
2023-01-01T23:21:39.122Z,13.67
2023-01-01T23:24:10.761Z,14.17
2023-01-01T23:26:39.584Z,16.43
2023-01-01T23:29:09.455Z,15.20
2023-01-01T23:31:38.666Z,13.73
2023-01-01T23:34:07.178Z,14.80
2023-01-01T23:36:36.203Z,15.13
2023-01-01T23:39:04.738Z,15.30
2023-01-01T23:41:34.718Z,15.13
2023-01-01T23:44:03.277Z,13.17
2023-01-01T23:46:33.858Z,15.90
2023-01-01T23:49:03.651Z,16.03
2023-01-01T23:51:33.071Z,14.87
2023-01-01T23:54:01.610Z,16.93
2023-01-01T23:56:30.158Z,14.33
2023-01-01T23:59:00.198Z,12.97
